sensor_id;sensor_type;location;lat;lon;timestamp;pressure;altitude;pressure_sealevel;temperature;humidity
14134;BME280;7147;59.364;18.018;2022-11-14T00:00:25;10290.78;;;-143.32;100.00
14134;BME280;7147;59.364;18.018;2022-11-14T00:02:52;10379.28;;;-143.32;100.00
14134;BME280;7147;59.364;18.018;2022-11-14T00:05:19;10953.47;;;-143.32;100.00
14134;BME280;7147;59.364;18.018;2022-11-14T00:07:46;11179.91;;;-143.32;100.00
14134;BME280;7147;59.364;18.018;2022-11-14T00:10:14;11453.66;;;-143.32;100.00
14134;BME280;7147;59.364;18.018;2022-11-14T00:12:42;11538.06;;;-143.32;100.00
14134;BME280;7147;59.364;18.018;2022-11-14T00:15:09;10457.47;;;-143.32;100.00
14134;BME280;7147;59.364;18.018;2022-11-14T00:17:36;10665.34;;;-143.32;100.00
14134;BME280;7147;59.364;18.018;2022-11-14T00:20:05;10690.03;;;-143.32;100.00
14134;BME280;7147;59.364;18.018;2022-11-14T00:22:32;10434.84;;;-143.32;100.00
14134;BME280;7147;59.364;18.018;2022-11-14T00:24:59;10128.22;;;-143.32;100.00
14134;BME280;7147;59.364;18.018;2022-11-14T00:27:26;10206.41;;;-143.32;100.00
14134;BME280;7147;59.364;18.018;2022-11-14T00:29:54;10445.13;;;-143.32;100.00
14134;BME280;7147;59.364;18.018;2022-11-14T00:32:21;10157.03;;;-143.32;100.00
14134;BME280;7147;59.364;18.018;2022-11-14T00:34:48;9772.25;;;-143.32;100.00
14134;BME280;7147;59.364;18.018;2022-11-14T00:37:14;9924.50;;;-143.32;100.00
14134;BME280;7147;59.364;18.018;2022-11-14T00:39:41;9735.22;;;-143.32;100.00
14134;BME280;7147;59.364;18.018;2022-11-14T00:42:08;9494.50;;;-143.32;100.00
14134;BME280;7147;59.364;18.018;2022-11-14T00:44:35;9379.28;;;-143.32;100.00
14134;BME280;7147;59.364;18.018;2022-11-14T00:47:03;8640.81;;;-143.32;100.00
14134;BME280;7147;59.364;18.018;2022-11-14T00:49:30;8056.72;;;-143.32;100.00
14134;BME280;7147;59.364;18.018;2022-11-14T00:51:59;7579.66;;;-143.32;100.00
14134;BME280;7147;59.364;18.018;2022-11-14T00:54:26;7080.06;;;-143.32;100.00
14134;BME280;7147;59.364;18.018;2022-11-14T00:56:53;7004.00;;;-143.32;100.00
14134;BME280;7147;59.364;18.018;2022-11-14T00:59:19;7123.25;;;-143.32;100.00
14134;BME280;7147;59.364;18.018;2022-11-14T01:41:54;5731.72;;;-143.32;100.00
14134;BME280;7147;59.364;18.018;2022-11-14T01:44:46;5267.31;;;-143.32;100.00
14134;BME280;7147;59.364;18.018;2022-11-14T01:47:17;4952.97;;;-143.32;100.00
14134;BME280;7147;59.364;18.018;2022-11-14T01:49:46;4334.63;;;-143.32;100.00
14134;BME280;7147;59.364;18.018;2022-11-14T01:52:15;3790.31;;;-143.32;100.00
14134;BME280;7147;59.364;18.018;2022-11-14T01:54:45;3396.03;;;-143.32;100.00
14134;BME280;7147;59.364;18.018;2022-11-14T01:57:16;2671.19;;;-143.32;100.00
14134;BME280;7147;59.364;18.018;2022-11-14T01:59:48;2560.34;;;-143.32;100.00
14134;BME280;7147;59.364;18.018;2022-11-14T02:02:18;2075.84;;;-143.32;100.00
14134;BME280;7147;59.364;18.018;2022-11-14T02:04:47;2266.78;;;-143.32;100.00
14134;BME280;7147;59.364;18.018;2022-11-14T02:07:17;2527.50;;;-143.32;100.00
14134;BME280;7147;59.364;18.018;2022-11-14T02:09:46;2652.72;;;-143.32;100.00
14134;BME280;7147;59.364;18.018;2022-11-14T02:12:17;2839.56;;;-143.32;100.00
14134;BME280;7147;59.364;18.018;2022-11-14T02:14:46;2819.03;;;-143.32;100.00
14134;BME280;7147;59.364;18.018;2022-11-14T02:17:14;2835.44;;;-143.32;100.00
14134;BME280;7147;59.364;18.018;2022-11-14T02:19:44;2504.91;;;-143.32;100.00
14134;BME280;7147;59.364;18.018;2022-11-14T02:22:12;2640.41;;;-143.32;100.00
14134;BME280;7147;59.364;18.018;2022-11-14T02:24:39;2876.50;;;-143.32;100.00
14134;BME280;7147;59.364;18.018;2022-11-14T02:27:06;3354.94;;;-143.32;100.00
14134;BME280;7147;59.364;18.018;2022-11-14T02:29:34;4217.53;;;-143.32;100.00
14134;BME280;7147;59.364;18.018;2022-11-14T02:32:01;4390.06;;;-143.32;100.00
14134;BME280;7147;59.364;18.018;2022-11-14T02:34:28;4694.09;;;-143.32;100.00
14134;BME280;7147;59.364;18.018;2022-11-14T02:36:55;4854.34;;;-143.32;100.00
14134;BME280;7147;59.364;18.018;2022-11-14T02:39:24;4464.03;;;-143.32;100.00
14134;BME280;7147;59.364;18.018;2022-11-14T02:41:51;4240.13;;;-143.32;100.00
14134;BME280;7147;59.364;18.018;2022-11-14T02:44:18;4157.97;;;-143.32;100.00
14134;BME280;7147;59.364;18.018;2022-11-14T02:46:45;3895.06;;;-143.32;100.00
14134;BME280;7147;59.364;18.018;2022-11-14T02:49:12;3646.56;;;-143.32;100.00
14134;BME280;7147;59.364;18.018;2022-11-14T02:51:39;5105.00;;;-143.32;100.00
14134;BME280;7147;59.364;18.018;2022-11-14T02:54:06;5287.88;;;-143.32;100.00
14134;BME280;7147;59.364;18.018;2022-11-14T02:56:34;4418.84;;;-143.32;100.00
14134;BME280;7147;59.364;18.018;2022-11-14T02:59:01;4427.06;;;-143.32;100.00
14134;BME280;7147;59.364;18.018;2022-11-14T03:01:28;4679.72;;;-143.32;100.00
14134;BME280;7147;59.364;18.018;2022-11-14T03:03:55;4889.28;;;-143.32;100.00
14134;BME280;7147;59.364;18.018;2022-11-14T03:06:21;4710.53;;;-143.32;100.00
14134;BME280;7147;59.364;18.018;2022-11-14T03:08:48;4231.91;;;-143.32;100.00
14134;BME280;7147;59.364;18.018;2022-11-14T03:11:15;3702.00;;;-143.32;100.00
14134;BME280;7147;59.364;18.018;2022-11-14T03:13:43;4106.63;;;-143.32;100.00
14134;BME280;7147;59.364;18.018;2022-11-14T03:16:12;4151.81;;;-143.32;100.00
14134;BME280;7147;59.364;18.018;2022-11-14T03:18:39;3884.78;;;-143.32;100.00
14134;BME280;7147;59.364;18.018;2022-11-14T03:21:07;3648.63;;;-143.32;100.00
14134;BME280;7147;59.364;18.018;2022-11-14T03:23:34;3408.34;;;-143.32;100.00
14134;BME280;7147;59.364;18.018;2022-11-14T03:26:04;2895.00;;;-143.32;100.00
14134;BME280;7147;59.364;18.018;2022-11-14T03:28:31;2632.19;;;-143.32;100.00
14134;BME280;7147;59.364;18.018;2022-11-14T03:30:59;2788.22;;;-143.32;100.00
14134;BME280;7147;59.364;18.018;2022-11-14T03:33:26;2878.56;;;-143.32;100.00
14134;BME280;7147;59.364;18.018;2022-11-14T03:35:54;3116.75;;;-143.32;100.00
14134;BME280;7147;59.364;18.018;2022-11-14T03:38:21;3373.44;;;-143.32;100.00
14134;BME280;7147;59.364;18.018;2022-11-14T03:40:48;3383.69;;;-143.32;100.00
14134;BME280;7147;59.364;18.018;2022-11-14T03:43:15;3322.09;;;-143.32;100.00
14134;BME280;7147;59.364;18.018;2022-11-14T03:45:42;3361.09;;;-143.32;100.00
14134;BME280;7147;59.364;18.018;2022-11-14T03:48:10;3420.66;;;-143.32;100.00
14134;BME280;7147;59.364;18.018;2022-11-14T03:50:37;3424.75;;;-143.32;100.00
14134;BME280;7147;59.364;18.018;2022-11-14T03:53:04;3975.16;;;-143.32;100.00
14134;BME280;7147;59.364;18.018;2022-11-14T03:55:31;4219.59;;;-143.32;100.00
14134;BME280;7147;59.364;18.018;2022-11-14T03:57:58;4081.97;;;-143.32;100.00
14134;BME280;7147;59.364;18.018;2022-11-14T04:00:25;3689.69;;;-143.32;100.00
14134;BME280;7147;59.364;18.018;2022-11-14T04:02:53;3601.38;;;-143.32;100.00
14134;BME280;7147;59.364;18.018;2022-11-14T04:05:21;2845.72;;;-143.32;100.00
14134;BME280;7147;59.364;18.018;2022-11-14T04:07:49;2580.88;;;-143.32;100.00
14134;BME280;7147;59.364;18.018;2022-11-14T04:10:16;1763.88;;;-143.32;100.00
14134;BME280;7147;59.364;18.018;2022-11-14T04:12:46;897.81;;;-143.32;100.00
14134;BME280;7147;59.364;18.018;2022-11-14T04:15:14;-285.97;;;-143.32;100.00
14134;BME280;7147;59.364;18.018;2022-11-14T04:17:41;-839.75;;;-143.32;100.00
14134;BME280;7147;59.364;18.018;2022-11-14T04:20:09;-1106.34;;;-143.32;100.00
14134;BME280;7147;59.364;18.018;2022-11-14T04:22:38;-1703.06;;;-143.32;100.00
14134;BME280;7147;59.364;18.018;2022-11-14T04:25:06;-1949.09;;;-143.32;100.00
14134;BME280;7147;59.364;18.018;2022-11-14T04:27:33;-2139.75;;;-143.32;100.00
14134;BME280;7147;59.364;18.018;2022-11-14T04:30:00;-1865.03;;;-143.32;100.00
14134;BME280;7147;59.364;18.018;2022-11-14T04:32:27;-1575.94;;;-143.32;100.00
14134;BME280;7147;59.364;18.018;2022-11-14T04:34:54;-1358.56;;;-143.32;100.00
14134;BME280;7147;59.364;18.018;2022-11-14T04:37:20;-411.09;;;-143.32;100.00
14134;BME280;7147;59.364;18.018;2022-11-14T04:39:49;226.88;;;-143.32;100.00
14134;BME280;7147;59.364;18.018;2022-11-14T04:42:15;1265.13;;;-143.32;100.00
14134;BME280;7147;59.364;18.018;2022-11-14T04:44:42;2270.88;;;-143.32;100.00
14134;BME280;7147;59.364;18.018;2022-11-14T04:47:09;2874.47;;;-143.32;100.00
14134;BME280;7147;59.364;18.018;2022-11-14T04:49:36;3541.81;;;-143.32;100.00
14134;BME280;7147;59.364;18.018;2022-11-14T04:52:03;3946.41;;;-143.32;100.00
14134;BME280;7147;59.364;18.018;2022-11-14T04:54:30;4599.59;;;-143.32;100.00
14134;BME280;7147;59.364;18.018;2022-11-14T04:56:58;5162.53;;;-143.32;100.00
14134;BME280;7147;59.364;18.018;2022-11-14T04:59:26;5647.47;;;-143.32;100.00
14134;BME280;7147;59.364;18.018;2022-11-14T05:01:53;6422.25;;;-143.32;100.00
14134;BME280;7147;59.364;18.018;2022-11-14T05:04:20;6798.44;;;-143.32;100.00
14134;BME280;7147;59.364;18.018;2022-11-14T05:06:47;7110.91;;;-143.32;100.00
14134;BME280;7147;59.364;18.018;2022-11-14T05:09:14;7520.03;;;-143.32;100.00
14134;BME280;7147;59.364;18.018;2022-11-14T05:11:40;7738.00;;;-143.32;100.00
14134;BME280;7147;59.364;18.018;2022-11-14T05:14:08;7865.50;;;-143.32;100.00
14134;BME280;7147;59.364;18.018;2022-11-14T05:16:35;8151.34;;;-143.32;100.00
14134;BME280;7147;59.364;18.018;2022-11-14T05:19:02;7896.34;;;-143.32;100.00
14134;BME280;7147;59.364;18.018;2022-11-14T05:21:29;7822.31;;;-143.32;100.00
14134;BME280;7147;59.364;18.018;2022-11-14T05:23:55;7542.66;;;-143.32;100.00
14134;BME280;7147;59.364;18.018;2022-11-14T05:26:22;7036.91;;;-143.32;100.00
14134;BME280;7147;59.364;18.018;2022-11-14T05:28:49;6740.88;;;-143.32;100.00
14134;BME280;7147;59.364;18.018;2022-11-14T05:31:17;6286.59;;;-143.32;100.00
14134;BME280;7147;59.364;18.018;2022-11-14T05:33:44;5902.28;;;-143.32;100.00
14134;BME280;7147;59.364;18.018;2022-11-14T05:36:12;5688.56;;;-143.32;100.00
14134;BME280;7147;59.364;18.018;2022-11-14T05:38:40;4996.09;;;-143.32;100.00
14134;BME280;7147;59.364;18.018;2022-11-14T05:41:07;4229.84;;;-143.32;100.00
14134;BME280;7147;59.364;18.018;2022-11-14T05:43:35;3640.41;;;-143.32;100.00
14134;BME280;7147;59.364;18.018;2022-11-14T05:46:04;3564.41;;;-143.32;100.00
14134;BME280;7147;59.364;18.018;2022-11-14T05:48:32;3059.25;;;-143.32;100.00
14134;BME280;7147;59.364;18.018;2022-11-14T05:51:00;2519.28;;;-143.32;100.00
14134;BME280;7147;59.364;18.018;2022-11-14T05:53:28;2055.34;;;-143.32;100.00
14134;BME280;7147;59.364;18.018;2022-11-14T05:55:59;1685.88;;;-143.32;100.00
14134;BME280;7147;59.364;18.018;2022-11-14T05:58:26;1254.88;;;-143.32;100.00
14134;BME280;7147;59.364;18.018;2022-11-14T06:01:00;988.09;;;-143.32;100.00
14134;BME280;7147;59.364;18.018;2022-11-14T06:03:31;-41.84;;;-143.32;100.00
14134;BME280;7147;59.364;18.018;2022-11-14T06:05:59;-829.50;;;-143.32;100.00
14134;BME280;7147;59.364;18.018;2022-11-14T06:08:27;-1053.03;;;-143.32;100.00
14134;BME280;7147;59.364;18.018;2022-11-14T06:10:54;-1959.34;;;-143.32;100.00
14134;BME280;7147;59.364;18.018;2022-11-14T06:13:21;-2322.19;;;-143.32;100.00
14134;BME280;7147;59.364;18.018;2022-11-14T06:15:48;-2717.81;;;-143.32;100.00
14134;BME280;7147;59.364;18.018;2022-11-14T06:18:15;-3890.03;;;-143.32;100.00
14134;BME280;7147;59.364;18.018;2022-11-14T06:20:43;-4084.69;;;-143.32;100.00
14134;BME280;7147;59.364;18.018;2022-11-14T06:23:10;-4709.53;;;-143.32;100.00
14134;BME280;7147;59.364;18.018;2022-11-14T06:25:37;-5227.75;;;-143.32;100.00
14134;BME280;7147;59.364;18.018;2022-11-14T06:28:04;-5602.53;;;-143.32;100.00
14134;BME280;7147;59.364;18.018;2022-11-14T06:30:31;-5903.56;;;-143.32;100.00
14134;BME280;7147;59.364;18.018;2022-11-14T06:32:58;-6671.38;;;-143.32;100.00
14134;BME280;7147;59.364;18.018;2022-11-14T06:35:25;-6970.25;;;-143.32;100.00
14134;BME280;7147;59.364;18.018;2022-11-14T06:37:53;-6861.75;;;-143.32;100.00
14134;BME280;7147;59.364;18.018;2022-11-14T06:40:20;-6622.22;;;-143.32;100.00
14134;BME280;7147;59.364;18.018;2022-11-14T06:42:47;-6085.81;;;-143.32;100.00
14134;BME280;7147;59.364;18.018;2022-11-14T06:45:14;-6321.28;;;-143.32;100.00
14134;BME280;7147;59.364;18.018;2022-11-14T06:47:41;-4863.16;;;-143.32;100.00
14134;BME280;7147;59.364;18.018;2022-11-14T06:50:08;-4029.38;;;-143.32;100.00
14134;BME280;7147;59.364;18.018;2022-11-14T06:52:35;-3396.19;;;-143.32;100.00
14134;BME280;7147;59.364;18.018;2022-11-14T06:55:04;-3728.16;;;-143.32;100.00
14134;BME280;7147;59.364;18.018;2022-11-14T06:57:31;-4193.28;;;-143.32;100.00
14134;BME280;7147;59.364;18.018;2022-11-14T06:59:58;-3928.97;;;-143.32;100.00
14134;BME280;7147;59.364;18.018;2022-11-14T07:02:25;-4988.09;;;-143.32;100.00
14134;BME280;7147;59.364;18.018;2022-11-14T07:04:53;-6077.63;;;-143.32;100.00
14134;BME280;7147;59.364;18.018;2022-11-14T07:07:19;-6876.09;;;-143.32;100.00
14134;BME280;7147;59.364;18.018;2022-11-14T07:09:46;-8171.66;;;-143.32;100.00
14134;BME280;7147;59.364;18.018;2022-11-14T07:12:14;-8259.63;;;-143.32;100.00
14134;BME280;7147;59.364;18.018;2022-11-14T07:14:41;-8627.94;;;-143.32;100.00
14134;BME280;7147;59.364;18.018;2022-11-14T07:17:08;-7436.94;;;-143.32;100.00
14134;BME280;7147;59.364;18.018;2022-11-14T07:19:35;-7705.06;;;-143.32;100.00
14134;BME280;7147;59.364;18.018;2022-11-14T07:22:02;-7932.22;;;-143.32;100.00
14134;BME280;7147;59.364;18.018;2022-11-14T07:24:29;-7318.22;;;-143.32;100.00
14134;BME280;7147;59.364;18.018;2022-11-14T07:26:56;-6921.13;;;-143.32;100.00
14134;BME280;7147;59.364;18.018;2022-11-14T07:29:24;-4781.22;;;-143.32;100.00
14134;BME280;7147;59.364;18.018;2022-11-14T07:31:51;-3652.34;;;-143.32;100.00
14134;BME280;7147;59.364;18.018;2022-11-14T07:34:18;-7948.59;;;-143.32;100.00
14134;BME280;7147;59.364;18.018;2022-11-14T07:36:44;-7674.34;;;-143.32;100.00
14134;BME280;7147;59.364;18.018;2022-11-14T07:39:11;-7383.72;;;-143.32;100.00
14134;BME280;7147;59.364;18.018;2022-11-14T07:41:38;-7567.94;;;-143.32;100.00
14134;BME280;7147;59.364;18.018;2022-11-14T07:44:06;-6941.59;;;-143.32;100.00
14134;BME280;7147;59.364;18.018;2022-11-14T07:46:34;-6640.66;;;-143.32;100.00
14134;BME280;7147;59.364;18.018;2022-11-14T07:49:02;-6190.22;;;-143.32;100.00
14134;BME280;7147;59.364;18.018;2022-11-14T07:51:29;-5575.91;;;-143.32;100.00
14134;BME280;7147;59.364;18.018;2022-11-14T07:53:56;-5553.38;;;-143.32;100.00
14134;BME280;7147;59.364;18.018;2022-11-14T07:56:22;-5082.31;;;-143.32;100.00
14134;BME280;7147;59.364;18.018;2022-11-14T07:58:50;-4738.22;;;-143.32;100.00
14134;BME280;7147;59.364;18.018;2022-11-14T08:01:17;-6184.09;;;-143.32;100.00
14134;BME280;7147;59.364;18.018;2022-11-14T08:03:45;-6261.91;;;-143.32;100.00
14134;BME280;7147;59.364;18.018;2022-11-14T08:06:14;-7383.72;;;-143.32;100.00
14134;BME280;7147;59.364;18.018;2022-11-14T08:08:41;-8953.22;;;-143.32;100.00
14134;BME280;7147;59.364;18.018;2022-11-14T08:11:07;-9256.00;;;-143.32;100.00
14134;BME280;7147;59.364;18.018;2022-11-14T08:13:34;-9505.56;;;-143.32;100.00
14134;BME280;7147;59.364;18.018;2022-11-14T08:16:03;-10364.53;;;-143.32;100.00
14134;BME280;7147;59.364;18.018;2022-11-14T08:18:30;-10297.06;;;-143.32;100.00
14134;BME280;7147;59.364;18.018;2022-11-14T08:21:02;-10493.34;;;-143.32;100.00
14134;BME280;7147;59.364;18.018;2022-11-14T08:23:29;-10875.72;;;-143.32;100.00
14134;BME280;7147;59.364;18.018;2022-11-14T08:25:57;-11339.81;;;-143.32;100.00
14134;BME280;7147;59.364;18.018;2022-11-14T08:28:23;-11854.94;;;-143.32;100.00
14134;BME280;7147;59.364;18.018;2022-11-14T08:30:50;-12292.31;;;-143.32;100.00
14134;BME280;7147;59.364;18.018;2022-11-14T08:33:17;-12586.59;;;-143.32;100.00
14134;BME280;7147;59.364;18.018;2022-11-14T08:35:44;-12987.09;;;-143.32;100.00
14134;BME280;7147;59.364;18.018;2022-11-14T08:38:12;-13162.81;;;-143.32;100.00
14134;BME280;7147;59.364;18.018;2022-11-14T08:40:39;-12980.97;;;-143.32;100.00
14134;BME280;7147;59.364;18.018;2022-11-14T08:43:05;-12933.97;;;-143.32;100.00
14134;BME280;7147;59.364;18.018;2022-11-14T08:45:32;-13422.28;;;-143.32;100.00
14134;BME280;7147;59.364;18.018;2022-11-14T08:47:59;-13839.03;;;-143.32;100.00
14134;BME280;7147;59.364;18.018;2022-11-14T08:50:26;-14157.69;;;-143.32;100.00
14134;BME280;7147;59.364;18.018;2022-11-14T08:52:52;-14008.56;;;-143.32;100.00
14134;BME280;7147;59.364;18.018;2022-11-14T08:55:21;-14241.44;;;-143.32;100.00
14134;BME280;7147;59.364;18.018;2022-11-14T08:57:47;-14515.09;;;-143.32;100.00
14134;BME280;7147;59.364;18.018;2022-11-14T09:00:15;-14429.34;;;-143.32;100.00
14134;BME280;7147;59.364;18.018;2022-11-14T09:02:42;-14398.69;;;-143.32;100.00
14134;BME280;7147;59.364;18.018;2022-11-14T09:05:09;-14259.81;;;-143.32;100.00
14134;BME280;7147;59.364;18.018;2022-11-14T09:07:36;-13671.53;;;-143.32;100.00
14134;BME280;7147;59.364;18.018;2022-11-14T09:10:04;-13405.94;;;-143.32;100.00
14134;BME280;7147;59.364;18.018;2022-11-14T09:12:33;-13718.50;;;-143.32;100.00
14134;BME280;7147;59.364;18.018;2022-11-14T09:15:00;-14122.97;;;-143.32;100.00
14134;BME280;7147;59.364;18.018;2022-11-14T09:17:26;-13979.97;;;-143.32;100.00
14134;BME280;7147;59.364;18.018;2022-11-14T09:19:56;-14098.44;;;-143.32;100.00
14134;BME280;7147;59.364;18.018;2022-11-14T09:22:23;-14194.44;;;-143.32;100.00
14134;BME280;7147;59.364;18.018;2022-11-14T09:24:49;-14565.66;;;-143.32;100.00
14134;BME280;7147;59.364;18.018;2022-11-14T09:27:17;-14565.66;;;-143.32;100.00
14134;BME280;7147;59.364;18.018;2022-11-14T09:29:45;-14565.66;;;-143.32;100.00
14134;BME280;7147;59.364;18.018;2022-11-14T09:32:12;-14565.66;;;-143.32;100.00
14134;BME280;7147;59.364;18.018;2022-11-14T09:34:39;-14565.66;;;-143.32;100.00
14134;BME280;7147;59.364;18.018;2022-11-14T09:37:07;-14565.66;;;-143.32;100.00
14134;BME280;7147;59.364;18.018;2022-11-14T09:39:34;-14565.66;;;-143.32;100.00
14134;BME280;7147;59.364;18.018;2022-11-14T09:42:20;-14565.66;;;-143.32;100.00
14134;BME280;7147;59.364;18.018;2022-11-14T09:44:53;-14565.66;;;-143.32;100.00
14134;BME280;7147;59.364;18.018;2022-11-14T09:47:24;-14565.66;;;-143.32;100.00
14134;BME280;7147;59.364;18.018;2022-11-14T09:49:59;-14565.66;;;-143.32;100.00
14134;BME280;7147;59.364;18.018;2022-11-14T09:52:31;-14565.66;;;-143.32;100.00
14134;BME280;7147;59.364;18.018;2022-11-14T09:55:03;-14565.66;;;-143.32;100.00
14134;BME280;7147;59.364;18.018;2022-11-14T09:57:35;-14565.66;;;-143.32;100.00
14134;BME280;7147;59.364;18.018;2022-11-14T10:00:12;-14565.66;;;-143.32;100.00
14134;BME280;7147;59.364;18.018;2022-11-14T10:02:45;-14565.66;;;-143.32;100.00
14134;BME280;7147;59.364;18.018;2022-11-14T10:05:29;-14565.66;;;-143.32;100.00
14134;BME280;7147;59.364;18.018;2022-11-14T10:08:17;-14565.66;;;-143.32;100.00
14134;BME280;7147;59.364;18.018;2022-11-14T10:10:52;-14565.66;;;-143.32;100.00
14134;BME280;7147;59.364;18.018;2022-11-14T10:13:43;-14565.66;;;-143.32;100.00
14134;BME280;7147;59.364;18.018;2022-11-14T10:16:19;-14565.66;;;-143.32;100.00
14134;BME280;7147;59.364;18.018;2022-11-14T10:18:58;-14565.66;;;-143.32;100.00
14134;BME280;7147;59.364;18.018;2022-11-14T10:21:43;-14565.66;;;-143.32;100.00
14134;BME280;7147;59.364;18.018;2022-11-14T10:24:26;-14565.66;;;-143.32;100.00
14134;BME280;7147;59.364;18.018;2022-11-14T10:27:00;-14565.66;;;-143.32;100.00
14134;BME280;7147;59.364;18.018;2022-11-14T10:29:55;-14565.66;;;-143.32;100.00
14134;BME280;7147;59.364;18.018;2022-11-14T10:32:38;-14565.66;;;-143.32;100.00
14134;BME280;7147;59.364;18.018;2022-11-14T10:35:11;-14565.66;;;-143.32;100.00
14134;BME280;7147;59.364;18.018;2022-11-14T10:37:47;-14565.66;;;-143.32;100.00
14134;BME280;7147;59.364;18.018;2022-11-14T10:40:17;-14565.66;;;-143.32;100.00
14134;BME280;7147;59.364;18.018;2022-11-14T10:42:45;-14565.66;;;-143.32;100.00
14134;BME280;7147;59.364;18.018;2022-11-14T10:45:17;-14565.66;;;-143.32;100.00
14134;BME280;7147;59.364;18.018;2022-11-14T10:47:52;-14565.66;;;-143.32;100.00
14134;BME280;7147;59.364;18.018;2022-11-14T10:50:22;-14565.66;;;-143.32;100.00
14134;BME280;7147;59.364;18.018;2022-11-14T10:52:53;-14565.66;;;-143.32;100.00
14134;BME280;7147;59.364;18.018;2022-11-14T10:55:23;-14565.66;;;-143.32;100.00
14134;BME280;7147;59.364;18.018;2022-11-14T10:57:50;-14565.66;;;-143.32;100.00
14134;BME280;7147;59.364;18.018;2022-11-14T11:00:19;-14565.66;;;-143.32;100.00
14134;BME280;7147;59.364;18.018;2022-11-14T11:02:51;-14565.66;;;-143.32;100.00
14134;BME280;7147;59.364;18.018;2022-11-14T11:05:19;-14565.66;;;-143.32;100.00
14134;BME280;7147;59.364;18.018;2022-11-14T11:07:47;-14565.66;;;-143.32;100.00
14134;BME280;7147;59.364;18.018;2022-11-14T11:10:28;-14565.66;;;-143.32;100.00
14134;BME280;7147;59.364;18.018;2022-11-14T11:13:13;-14565.66;;;-143.32;100.00
14134;BME280;7147;59.364;18.018;2022-11-14T11:15:54;-14565.66;;;-143.32;100.00
14134;BME280;7147;59.364;18.018;2022-11-14T11:18:27;-14565.66;;;-143.32;100.00
14134;BME280;7147;59.364;18.018;2022-11-14T11:21:04;-14565.66;;;-143.32;100.00
14134;BME280;7147;59.364;18.018;2022-11-14T11:23:31;-14565.66;;;-143.32;100.00
14134;BME280;7147;59.364;18.018;2022-11-14T11:25:59;-14565.66;;;-143.32;100.00
14134;BME280;7147;59.364;18.018;2022-11-14T11:28:31;-14565.66;;;-143.32;100.00
14134;BME280;7147;59.364;18.018;2022-11-14T11:30:59;-14565.66;;;-143.32;100.00
14134;BME280;7147;59.364;18.018;2022-11-14T11:33:29;-14565.66;;;-143.32;100.00
14134;BME280;7147;59.364;18.018;2022-11-14T11:36:01;-14565.66;;;-143.32;100.00
14134;BME280;7147;59.364;18.018;2022-11-14T11:38:30;-14565.66;;;-143.32;100.00
14134;BME280;7147;59.364;18.018;2022-11-14T11:41:06;-14565.66;;;-143.32;100.00
14134;BME280;7147;59.364;18.018;2022-11-14T11:43:42;-14565.66;;;-143.32;100.00
14134;BME280;7147;59.364;18.018;2022-11-14T11:46:15;-14565.66;;;-143.32;100.00
14134;BME280;7147;59.364;18.018;2022-11-14T11:48:46;-14565.66;;;-143.32;100.00
14134;BME280;7147;59.364;18.018;2022-11-14T11:51:18;-14565.66;;;-143.32;100.00
14134;BME280;7147;59.364;18.018;2022-11-14T11:53:55;-14565.66;;;-143.32;100.00
14134;BME280;7147;59.364;18.018;2022-11-14T11:56:25;-14565.66;;;-143.32;100.00
14134;BME280;7147;59.364;18.018;2022-11-14T11:59:13;-14565.66;;;-143.32;100.00
14134;BME280;7147;59.364;18.018;2022-11-14T12:01:45;-14565.66;;;-143.32;100.00
14134;BME280;7147;59.364;18.018;2022-11-14T12:04:13;-14565.66;;;-143.32;100.00
14134;BME280;7147;59.364;18.018;2022-11-14T12:06:45;-14565.66;;;-143.32;100.00
14134;BME280;7147;59.364;18.018;2022-11-14T12:09:17;-14565.66;;;-143.32;100.00
14134;BME280;7147;59.364;18.018;2022-11-14T12:11:51;-14565.66;;;-143.32;100.00
14134;BME280;7147;59.364;18.018;2022-11-14T12:14:48;-14565.66;;;-143.32;100.00
14134;BME280;7147;59.364;18.018;2022-11-14T12:20:36;-14565.66;;;-143.32;100.00
14134;BME280;7147;59.364;18.018;2022-11-14T12:23:24;-14565.66;;;-143.32;100.00
14134;BME280;7147;59.364;18.018;2022-11-14T12:26:04;-14565.66;;;-143.32;100.00
14134;BME280;7147;59.364;18.018;2022-11-14T12:28:49;-14565.66;;;-143.32;100.00
14134;BME280;7147;59.364;18.018;2022-11-14T12:31:24;-14565.66;;;-143.32;100.00
14134;BME280;7147;59.364;18.018;2022-11-14T12:33:56;-14565.66;;;-143.32;100.00
14134;BME280;7147;59.364;18.018;2022-11-14T12:36:30;-14565.66;;;-143.32;100.00
14134;BME280;7147;59.364;18.018;2022-11-14T12:38:58;-14565.66;;;-143.32;100.00
14134;BME280;7147;59.364;18.018;2022-11-14T12:41:28;-14565.66;;;-143.32;100.00
14134;BME280;7147;59.364;18.018;2022-11-14T12:44:18;-14565.66;;;-143.32;100.00
14134;BME280;7147;59.364;18.018;2022-11-14T12:47:14;-14565.66;;;-143.32;100.00
14134;BME280;7147;59.364;18.018;2022-11-14T12:53:00;-14565.66;;;-143.32;100.00
14134;BME280;7147;59.364;18.018;2022-11-14T12:55:53;-14565.66;;;-143.32;100.00
14134;BME280;7147;59.364;18.018;2022-11-14T12:58:34;-14565.66;;;-143.32;100.00
14134;BME280;7147;59.364;18.018;2022-11-14T13:01:23;-14565.66;;;-143.32;100.00
14134;BME280;7147;59.364;18.018;2022-11-14T13:04:06;-14565.66;;;-143.32;100.00
14134;BME280;7147;59.364;18.018;2022-11-14T13:06:44;-14565.66;;;-143.32;100.00
14134;BME280;7147;59.364;18.018;2022-11-14T13:09:31;-14565.66;;;-143.32;100.00
14134;BME280;7147;59.364;18.018;2022-11-14T13:12:17;-14565.66;;;-143.32;100.00
14134;BME280;7147;59.364;18.018;2022-11-14T13:15:20;-14565.66;;;-143.32;100.00
14134;BME280;7147;59.364;18.018;2022-11-14T13:18:13;-14565.66;;;-143.32;100.00
14134;BME280;7147;59.364;18.018;2022-11-14T13:21:01;-14565.66;;;-143.32;100.00
14134;BME280;7147;59.364;18.018;2022-11-14T13:23:57;-14565.66;;;-143.32;100.00
14134;BME280;7147;59.364;18.018;2022-11-14T13:26:45;-14565.66;;;-143.32;100.00
14134;BME280;7147;59.364;18.018;2022-11-14T13:32:52;-14565.66;;;-143.32;100.00
14134;BME280;7147;59.364;18.018;2022-11-14T13:35:45;-14565.66;;;-143.32;100.00